CPX991 Details

Departure: Schiphol International Airport (EHAM)
Arrival: Liège Airport (EBLG)
Notes: EMPTY | NON-REVENUE REPOSITIONING LEG


Current Weather Information
EHAM 250225Z 31003KT 280V340 9999 BKN016 11/09 Q1017 TEMPO SCT016
EBLG 250220Z VRB02KT CAVOK 08/06 Q1017 NOSIG